Scottville, North Carolina
Current Conditions -  °F | °C
As of 8:15 AM on Thursday 27 Nov 2014 (Local Time) from KGEV Reporting Station
Light Snow Light Snow  
Wind Chill: 27°   Ceiling: 1500
Heat Index: 32°   Visibility: 5mi
Dew Point: 28°   Wind: 5mph
Humidity: 83%   Direction: 330°NNW
Pressure: 29.95"   Gusts: NA
Location:  36.48°N, 81.31°W
Report Text: KGEV 271315Z AUTO 33004KT 5SM -SN OVC015 00/M02 A2995 RMK AO2 T00001025
Loading
Personal Weather Stations






























Interactive Weather Map New forecast layout! Learn more

10-Day Weather Forecast

Advertisements
Track Severe Weather on mobile